createdAt,value
2016-09-17T00:00:01.692Z,14.96
2016-09-17T00:01:01.956Z,14.88
2016-09-17T00:02:01.623Z,14.86
2016-09-17T00:03:01.885Z,14.88
2016-09-17T00:04:01.855Z,14.88
2016-09-17T00:05:01.521Z,14.83
2016-09-17T00:06:01.492Z,14.88
2016-09-17T00:07:01.460Z,14.83
2016-09-17T00:08:01.726Z,14.8
2016-09-17T00:09:01.392Z,14.84
2016-09-17T00:10:01.655Z,14.81
2016-09-17T00:11:01.624Z,14.75
2016-09-17T00:12:01.588Z,14.81
2016-09-17T00:13:01.564Z,14.8
2016-09-17T00:14:01.520Z,14.81
2016-09-17T00:15:01.188Z,14.73
2016-09-17T00:16:01.459Z,14.77
2016-09-17T00:17:00.818Z,14.73
2016-09-17T00:18:01.092Z,14.75
2016-09-17T00:19:01.061Z,14.72
2016-09-17T00:20:01.326Z,14.73
2016-09-17T00:21:01.295Z,14.81
2016-09-17T00:22:00.955Z,14.75
2016-09-17T00:23:00.936Z,14.75
2016-09-17T00:24:00.890Z,14.81
2016-09-17T00:25:01.156Z,14.78
2016-09-17T00:26:01.248Z,14.81
2016-09-17T00:27:01.091Z,14.77
2016-09-17T00:28:00.751Z,14.73
2016-09-17T00:29:01.025Z,14.75
2016-09-17T00:30:00.994Z,14.75
2016-09-17T00:31:00.657Z,14.84
2016-09-17T00:32:00.632Z,14.75
2016-09-17T00:33:00.891Z,14.88
2016-09-17T00:34:00.860Z,14.8
2016-09-17T00:35:00.822Z,14.84
2016-09-17T00:36:00.790Z,14.88
2016-09-17T00:37:00.456Z,14.91
2016-09-17T00:38:00.743Z,14.86
2016-09-17T00:39:00.687Z,14.84
2016-09-17T00:40:00.657Z,14.94
2016-09-17T00:41:00.628Z,14.91
2016-09-17T00:42:00.291Z,14.84
2016-09-17T00:43:00.252Z,14.96
2016-09-17T00:44:00.521Z,14.94
2016-09-17T00:45:00.189Z,14.95
2016-09-17T00:46:00.462Z,14.95
2016-09-17T00:47:00.131Z,14.91
2016-09-17T00:48:00.090Z,14.92
2016-09-17T00:49:00.055Z,14.92
2016-09-17T00:50:00.024Z,14.96
2016-09-17T00:51:00.298Z,14.92
2016-09-17T00:52:00.263Z,14.95
2016-09-17T00:52:59.928Z,14.84
2016-09-17T00:54:00.199Z,14.89
2016-09-17T00:55:00.173Z,14.91
2016-09-17T00:56:00.126Z,14.95
2016-09-17T00:57:00.096Z,14.91
2016-09-17T00:58:00.070Z,14.94
2016-09-17T00:59:00.031Z,14.88
2016-09-17T01:00:00.000Z,14.88
2016-09-17T01:00:59.962Z,14.84
2016-09-17T01:01:59.625Z,14.88
2016-09-17T01:02:59.893Z,14.89
2016-09-17T01:03:59.865Z,14.86
2016-09-17T01:04:59.528Z,14.88
2016-09-17T01:05:59.495Z,14.91
2016-09-17T01:06:59.763Z,14.86
2016-09-17T01:07:59.743Z,14.86
2016-09-17T01:08:59.400Z,14.83
2016-09-17T01:09:59.660Z,14.91
2016-09-17T01:10:59.631Z,14.83
2016-09-17T01:11:59.297Z,14.77
2016-09-17T01:12:59.572Z,14.72
2016-09-17T01:13:59.532Z,14.81
2016-09-17T01:14:59.499Z,14.8
2016-09-17T01:15:59.475Z,14.75
2016-09-17T01:16:59.138Z,14.75
2016-09-17T01:17:59.099Z,14.72
2016-09-17T01:18:59.367Z,14.73
2016-09-17T01:19:59.335Z,14.73
2016-09-17T01:20:59.299Z,14.73
2016-09-17T01:21:59.271Z,14.69
2016-09-17T01:22:59.235Z,14.7
2016-09-17T01:23:59.202Z,14.62
2016-09-17T01:24:59.172Z,14.68
2016-09-17T01:25:59.136Z,14.62
2016-09-17T01:26:58.805Z,14.68
2016-09-17T01:27:58.769Z,14.72
2016-09-17T01:28:58.734Z,14.61
2016-09-17T01:29:59.003Z,14.61
2016-09-17T01:30:58.670Z,14.6
2016-09-17T01:31:58.939Z,14.6
2016-09-17T01:32:58.903Z,14.57
2016-09-17T01:33:58.870Z,14.62
2016-09-17T01:34:58.845Z,14.57
2016-09-17T01:35:58.808Z,14.43
2016-09-17T01:36:58.474Z,14.52
2016-09-17T01:37:58.737Z,14.42
2016-09-17T01:38:58.708Z,14.5
2016-09-17T01:39:58.670Z,14.46
2016-09-17T01:40:58.335Z,14.5
2016-09-17T01:41:58.605Z,14.46
2016-09-17T01:42:58.581Z,14.43
2016-09-17T01:43:58.242Z,14.54
2016-09-17T01:44:58.506Z,14.42
2016-09-17T01:45:58.174Z,14.39
2016-09-17T01:46:58.442Z,14.4
2016-09-17T01:47:58.411Z,14.43
2016-09-17T01:48:58.375Z,14.4
2016-09-17T01:49:58.349Z,14.39
2016-09-17T01:50:58.312Z,14.4
2016-09-17T01:51:58.276Z,14.39
2016-09-17T01:52:57.939Z,14.43
2016-09-17T01:53:58.204Z,14.42
2016-09-17T01:54:58.177Z,14.39
2016-09-17T01:55:58.137Z,14.37
2016-09-17T01:56:58.110Z,14.45
2016-09-17T01:57:57.771Z,14.47
2016-09-17T01:58:57.740Z,14.42
2016-09-17T01:59:58.013Z,14.42
2016-09-17T02:00:57.670Z,14.45
2016-09-17T02:01:57.944Z,14.45
2016-09-17T02:02:57.910Z,14.45
2016-09-17T02:03:57.879Z,14.5
2016-09-17T02:04:57.848Z,14.5
2016-09-17T02:05:57.209Z,14.43
2016-09-17T02:06:57.173Z,14.5
2016-09-17T02:07:57.742Z,14.46
2016-09-17T02:08:57.419Z,14.45
2016-09-17T02:09:57.378Z,14.45
2016-09-17T02:10:57.652Z,14.45
2016-09-17T02:11:57.314Z,14.43
2016-09-17T02:12:57.576Z,14.5
2016-09-17T02:13:57.242Z,14.5
2016-09-17T02:14:57.512Z,14.51
2016-09-17T02:15:57.476Z,14.39
2016-09-17T02:16:57.444Z,14.42
2016-09-17T02:17:57.409Z,14.33
2016-09-17T02:18:57.379Z,14.39
2016-09-17T02:19:57.343Z,14.42
2016-09-17T02:20:57.009Z,14.39
2016-09-17T02:21:57.282Z,14.36
2016-09-17T02:22:57.244Z,14.37
2016-09-17T02:23:57.208Z,14.39
2016-09-17T02:24:57.186Z,14.37
2016-09-17T02:25:57.143Z,14.39
2016-09-17T02:26:56.801Z,14.39
2016-09-17T02:27:56.783Z,14.37
2016-09-17T02:28:57.041Z,14.36
2016-09-17T02:29:56.709Z,14.37
2016-09-17T02:30:56.674Z,14.37
2016-09-17T02:31:56.642Z,14.4
2016-09-17T02:32:56.606Z,14.46
2016-09-17T02:33:56.877Z,14.42
2016-09-17T02:34:56.848Z,14.36
2016-09-17T02:35:56.203Z,14.37
2016-09-17T02:36:56.785Z,14.39
2016-09-17T02:37:56.749Z,14.4
2016-09-17T02:38:56.711Z,14.35
2016-09-17T02:39:56.680Z,14.36
2016-09-17T02:40:56.644Z,14.39
2016-09-17T02:41:56.608Z,14.42
2016-09-17T02:42:56.277Z,14.4
2016-09-17T02:43:56.241Z,14.43
2016-09-17T02:44:56.511Z,14.36
2016-09-17T02:45:56.174Z,14.39
2016-09-17T02:46:56.443Z,14.43
2016-09-17T02:47:56.410Z,14.39
2016-09-17T02:48:56.379Z,14.42
2016-09-17T02:49:56.345Z,14.39
2016-09-17T02:50:56.313Z,14.45
2016-09-17T02:51:56.274Z,14.39
2016-09-17T02:52:56.243Z,14.37
2016-09-17T02:53:56.210Z,14.42
2016-09-17T02:54:56.187Z,14.51
2016-09-17T02:55:55.843Z,14.39
2016-09-17T02:56:55.809Z,14.5
2016-09-17T02:57:56.083Z,14.39
2016-09-17T02:58:56.044Z,14.43
2016-09-17T02:59:55.710Z,14.52
2016-09-17T03:00:55.978Z,14.39
2016-09-17T03:01:55.641Z,14.42
2016-09-17T03:02:55.908Z,14.37
2016-09-17T03:03:55.880Z,14.4
2016-09-17T03:04:55.844Z,14.35
2016-09-17T03:05:55.816Z,14.42
2016-09-17T03:06:55.780Z,14.4
2016-09-17T03:07:55.738Z,14.4
2016-09-17T03:08:55.406Z,14.4
2016-09-17T03:09:55.675Z,14.37
2016-09-17T03:10:55.643Z,14.43
2016-09-17T03:11:55.602Z,14.37
2016-09-17T03:12:54.972Z,14.39
2016-09-17T03:13:55.551Z,14.42
2016-09-17T03:14:55.508Z,14.4
2016-09-17T03:15:55.492Z,14.33
2016-09-17T03:16:55.444Z,14.37
2016-09-17T03:17:55.411Z,14.32
2016-09-17T03:18:55.372Z,14.29
2016-09-17T03:19:55.040Z,14.35
2016-09-17T03:20:55.312Z,14.32
2016-09-17T03:21:55.275Z,14.29
2016-09-17T03:22:55.242Z,14.29
2016-09-17T03:23:55.206Z,14.35
2016-09-17T03:24:55.179Z,14.28
2016-09-17T03:25:54.835Z,14.35
2016-09-17T03:26:55.116Z,14.35
2016-09-17T03:27:55.075Z,14.42
2016-09-17T03:28:55.038Z,14.39
2016-09-17T03:29:55.008Z,14.42
2016-09-17T03:30:54.973Z,14.39
2016-09-17T03:31:54.942Z,14.37
2016-09-17T03:32:54.304Z,14.57
2016-09-17T03:33:54.877Z,14.39
2016-09-17T03:34:54.241Z,14.42
2016-09-17T03:35:54.809Z,14.46
2016-09-17T03:36:54.474Z,14.46
2016-09-17T03:37:54.743Z,14.46
2016-09-17T03:38:54.413Z,14.43
2016-09-17T03:39:54.373Z,14.43
2016-09-17T03:40:54.640Z,14.47
2016-09-17T03:41:54.308Z,14.42
2016-09-17T03:42:54.579Z,14.43
2016-09-17T03:43:54.547Z,14.45
2016-09-17T03:44:54.207Z,14.47
2016-09-17T03:45:54.174Z,14.51
2016-09-17T03:46:54.442Z,14.45
2016-09-17T03:47:54.410Z,14.46
2016-09-17T03:48:54.080Z,14.47
2016-09-17T03:49:54.044Z,14.46
2016-09-17T03:50:54.008Z,14.46
2016-09-17T03:51:53.979Z,14.52
2016-09-17T03:52:54.246Z,14.45
2016-09-17T03:53:54.210Z,14.42
2016-09-17T03:54:53.878Z,14.54
2016-09-17T03:55:53.855Z,14.47
2016-09-17T03:56:54.112Z,14.54
2016-09-17T03:57:54.078Z,14.46
2016-09-17T03:58:54.046Z,14.58
2016-09-17T03:59:54.019Z,14.55
2016-09-17T04:00:53.684Z,14.6
2016-09-17T04:01:53.942Z,14.62
2016-09-17T04:02:53.911Z,14.62
2016-09-17T04:03:53.883Z,14.6
2016-09-17T04:04:53.850Z,14.57
2016-09-17T04:05:53.521Z,14.61
2016-09-17T04:06:53.786Z,14.64
2016-09-17T04:07:53.444Z,14.69
2016-09-17T04:08:53.711Z,14.68
2016-09-17T04:09:53.674Z,14.72
2016-09-17T04:10:53.653Z,14.75
2016-09-17T04:11:53.609Z,14.68
2016-09-17T04:12:53.275Z,14.72
2016-09-17T04:13:53.548Z,14.72
2016-09-17T04:14:53.520Z,14.73
2016-09-17T04:15:53.478Z,14.64
2016-09-17T04:16:53.447Z,14.75
2016-09-17T04:17:53.407Z,14.64
2016-09-17T04:18:53.076Z,14.69
2016-09-17T04:19:53.042Z,14.73
2016-09-17T04:20:53.311Z,14.68
2016-09-17T04:21:52.977Z,14.78
2016-09-17T04:22:53.245Z,14.7
2016-09-17T04:23:53.233Z,14.78
2016-09-17T04:24:53.185Z,14.7
2016-09-17T04:25:53.147Z,14.75
2016-09-17T04:26:52.813Z,14.68
2016-09-17T04:27:53.078Z,14.7
2016-09-17T04:28:53.046Z,14.72
2016-09-17T04:29:52.712Z,14.68
2016-09-17T04:30:52.979Z,14.73
2016-09-17T04:31:52.650Z,14.7
2016-09-17T04:32:52.614Z,14.68
2016-09-17T04:33:52.877Z,14.7
2016-09-17T04:34:52.544Z,14.73
2016-09-17T04:35:52.511Z,14.69
2016-09-17T04:36:52.486Z,14.8
2016-09-17T04:37:52.746Z,14.68
2016-09-17T04:38:52.715Z,14.69
2016-09-17T04:39:52.682Z,14.73
2016-09-17T04:40:52.347Z,14.72
2016-09-17T04:41:52.621Z,14.7
2016-09-17T04:42:52.580Z,14.72
2016-09-17T04:43:52.551Z,14.78
2016-09-17T04:44:51.912Z,14.7
2016-09-17T04:45:52.487Z,14.73
2016-09-17T04:46:52.451Z,14.78
2016-09-17T04:47:52.414Z,14.75
2016-09-17T04:48:52.079Z,14.73
2016-09-17T04:49:52.055Z,14.77
2016-09-17T04:50:52.317Z,14.68
2016-09-17T04:51:52.284Z,14.69
2016-09-17T04:52:52.253Z,14.68
2016-09-17T04:53:52.219Z,14.73
2016-09-17T04:54:52.183Z,14.68
2016-09-17T04:55:52.151Z,14.69
2016-09-17T04:56:52.122Z,14.77
2016-09-17T04:57:51.785Z,14.64
2016-09-17T04:58:52.051Z,14.73
2016-09-17T04:59:51.715Z,14.68
2016-09-17T05:00:51.682Z,14.58
2016-09-17T05:01:51.653Z,14.64
2016-09-17T05:02:51.924Z,14.65
2016-09-17T05:03:51.584Z,14.6
2016-09-17T05:04:51.555Z,14.61
2016-09-17T05:05:51.824Z,14.57
2016-09-17T05:06:51.484Z,14.64
2016-09-17T05:07:51.147Z,14.58
2016-09-17T05:08:51.727Z,14.61
2016-09-17T05:09:51.701Z,14.61
2016-09-17T05:10:51.652Z,14.58
2016-09-17T05:11:51.619Z,14.61
2016-09-17T05:12:51.587Z,14.6
2016-09-17T05:13:51.276Z,14.58
2016-09-17T05:14:51.524Z,14.55
2016-09-17T05:15:51.187Z,14.6
2016-09-17T05:16:51.458Z,14.54
2016-09-17T05:17:51.423Z,14.55
2016-09-17T05:18:51.385Z,14.6
2016-09-17T05:19:51.055Z,14.58
2016-09-17T05:20:51.323Z,14.58
2016-09-17T05:21:50.988Z,14.55
2016-09-17T05:22:51.266Z,14.57
2016-09-17T05:23:51.223Z,14.64
2016-09-17T05:24:51.191Z,14.61
2016-09-17T05:25:51.159Z,14.55
2016-09-17T05:26:51.134Z,14.54
2016-09-17T05:27:50.789Z,14.55
2016-09-17T05:28:51.060Z,14.68
2016-09-17T05:29:51.024Z,14.57
2016-09-17T05:30:50.692Z,14.61
2016-09-17T05:31:50.957Z,14.61
2016-09-17T05:32:50.929Z,14.69
2016-09-17T05:33:50.882Z,14.62
2016-09-17T05:34:50.861Z,14.69
2016-09-17T05:35:50.824Z,14.72
2016-09-17T05:36:50.805Z,14.68
2016-09-17T05:37:50.759Z,14.69
2016-09-17T05:38:50.423Z,14.68
2016-09-17T05:39:50.393Z,14.81
2016-09-17T05:40:50.356Z,14.73
2016-09-17T05:41:50.625Z,14.73
2016-09-17T05:42:50.595Z,14.69
2016-09-17T05:43:50.259Z,14.73
2016-09-17T05:44:50.532Z,14.73
2016-09-17T05:45:50.492Z,14.72
2016-09-17T05:46:50.461Z,14.73
2016-09-17T05:47:50.427Z,14.77
2016-09-17T05:48:50.394Z,14.75
2016-09-17T05:49:49.756Z,14.81
2016-09-17T05:50:50.332Z,14.88
2016-09-17T05:51:50.297Z,14.75
2016-09-17T05:52:50.260Z,14.84
2016-09-17T05:53:50.230Z,14.89
2016-09-17T05:54:50.197Z,14.86
2016-09-17T05:55:50.169Z,14.91
2016-09-17T05:56:50.120Z,14.91
2016-09-17T05:57:49.801Z,14.89
2016-09-17T05:58:50.058Z,14.95
2016-09-17T05:59:50.041Z,14.88
2016-09-17T06:00:49.389Z,14.89
2016-09-17T06:01:49.661Z,14.94
2016-09-17T06:02:49.932Z,14.92
2016-09-17T06:03:49.596Z,14.92
2016-09-17T06:04:49.862Z,14.96
2016-09-17T06:05:49.834Z,14.95
2016-09-17T06:06:49.497Z,14.99
2016-09-17T06:07:49.464Z,14.98
2016-09-17T06:08:49.432Z,15.01
2016-09-17T06:09:49.695Z,15.06
2016-09-17T06:10:49.369Z,15.06
2016-09-17T06:11:49.330Z,15.03
2016-09-17T06:12:49.600Z,15.09
2016-09-17T06:13:49.564Z,15.02
2016-09-17T06:14:49.236Z,15.01
2016-09-17T06:15:49.501Z,15.02
2016-09-17T06:16:49.473Z,15.11
2016-09-17T06:17:49.141Z,15.13
2016-09-17T06:18:49.101Z,15.07
2016-09-17T06:19:49.373Z,15.14
2016-09-17T06:20:49.334Z,15.21
2016-09-17T06:21:49.305Z,15.2
2016-09-17T06:22:49.272Z,15.16
2016-09-17T06:23:49.240Z,15.21
2016-09-17T06:24:49.208Z,15.25
2016-09-17T06:25:48.869Z,15.19
2016-09-17T06:26:49.136Z,15.25
2016-09-17T06:27:49.108Z,15.27
2016-09-17T06:28:49.068Z,15.29
2016-09-17T06:29:48.743Z,15.38
2016-09-17T06:30:49.008Z,15.31
2016-09-17T06:31:48.984Z,15.36
2016-09-17T06:32:48.944Z,15.35
2016-09-17T06:33:48.613Z,15.35
2016-09-17T06:34:48.575Z,15.44
2016-09-17T06:35:48.539Z,15.41
2016-09-17T06:36:48.510Z,15.43
2016-09-17T06:37:48.773Z,15.46
2016-09-17T06:38:48.747Z,15.54
2016-09-17T06:39:48.712Z,15.53
2016-09-17T06:40:48.374Z,15.59
2016-09-17T06:41:48.648Z,15.59
2016-09-17T06:42:48.315Z,15.64
2016-09-17T06:43:48.287Z,15.71
2016-09-17T06:44:48.552Z,15.65
2016-09-17T06:45:48.519Z,15.67
2016-09-17T06:46:48.482Z,15.64
2016-09-17T06:47:48.456Z,15.78
2016-09-17T06:48:48.122Z,15.78
2016-09-17T06:49:48.389Z,15.78
2016-09-17T06:50:48.357Z,15.78
2016-09-17T06:51:48.019Z,15.87
2016-09-17T06:52:48.285Z,15.86
2016-09-17T06:53:47.958Z,15.9
2016-09-17T06:54:47.923Z,16
2016-09-17T06:55:48.194Z,16.05
2016-09-17T06:56:47.855Z,16.08
2016-09-17T06:57:48.129Z,16.17
2016-09-17T06:58:48.091Z,16.23
2016-09-17T06:59:48.075Z,16.23
2016-09-17T07:00:47.726Z,16.24
2016-09-17T07:01:48.008Z,16.23
2016-09-17T07:02:47.969Z,16.3
2016-09-17T07:03:47.937Z,16.42
2016-09-17T07:04:47.908Z,16.48
2016-09-17T07:05:47.884Z,16.5
2016-09-17T07:06:47.840Z,16.61
2016-09-17T07:07:47.505Z,16.68
2016-09-17T07:08:47.777Z,16.85
2016-09-17T07:09:47.744Z,16.93
2016-09-17T07:10:47.412Z,16.94
2016-09-17T07:11:47.377Z,16.98
2016-09-17T07:12:47.349Z,17.15
2016-09-17T07:13:47.316Z,17.23
2016-09-17T07:14:47.285Z,17.3
2016-09-17T07:15:47.560Z,17.38
2016-09-17T07:16:47.523Z,17.4
2016-09-17T07:17:47.490Z,17.38
2016-09-17T07:18:47.458Z,17.62
2016-09-17T07:19:47.132Z,17.52
2016-09-17T07:20:47.400Z,17.56
2016-09-17T07:21:47.367Z,17.63
2016-09-17T07:22:46.731Z,17.82
2016-09-17T07:23:47.003Z,17.79
2016-09-17T07:24:46.971Z,17.87
2016-09-17T07:25:46.940Z,17.96
2016-09-17T07:26:47.209Z,18.03
2016-09-17T07:27:47.176Z,18.05
2016-09-17T07:28:47.143Z,18.11
2016-09-17T07:29:47.126Z,18.2
2016-09-17T07:30:47.088Z,18.21
2016-09-17T07:31:46.748Z,18.32
2016-09-17T07:32:46.418Z,18.41
2016-09-17T07:33:46.991Z,18.42
2016-09-17T07:34:46.962Z,18.54
2016-09-17T07:35:46.927Z,18.62
2016-09-17T07:36:46.599Z,18.65
2016-09-17T07:37:46.573Z,18.66
2016-09-17T07:38:46.842Z,18.66
2016-09-17T07:39:46.506Z,18.73
2016-09-17T07:40:46.781Z,18.75
2016-09-17T07:41:46.749Z,18.78
2016-09-17T07:42:46.717Z,18.85
2016-09-17T07:43:46.687Z,18.92
2016-09-17T07:44:46.656Z,18.88
2016-09-17T07:45:46.024Z,18.9
2016-09-17T07:46:46.295Z,18.94
2016-09-17T07:47:46.568Z,18.94
2016-09-17T07:48:46.537Z,18.98
2016-09-17T07:49:46.203Z,18.94
2016-09-17T07:50:46.177Z,19.07
2016-09-17T07:51:46.144Z,19.02
2016-09-17T07:52:46.129Z,19.14
2016-09-17T07:53:46.084Z,19.19
2016-09-17T07:54:46.056Z,19.16
2016-09-17T07:55:46.023Z,19.21
2016-09-17T07:56:45.996Z,19.31
2016-09-17T07:57:45.963Z,19.39
2016-09-17T07:58:46.245Z,19.37
2016-09-17T07:59:46.210Z,19.4
2016-09-17T08:00:46.177Z,19.47
2016-09-17T08:01:46.146Z,19.51
2016-09-17T08:02:45.814Z,19.62
2016-09-17T08:03:45.786Z,19.71
2016-09-17T08:04:46.058Z,19.76
2016-09-17T08:05:46.026Z,19.69
2016-09-17T08:06:45.698Z,19.86
2016-09-17T08:07:45.984Z,19.86
2016-09-17T08:08:45.946Z,19.83
2016-09-17T08:09:45.904Z,19.86
2016-09-17T08:10:45.576Z,19.92
2016-09-17T08:11:45.846Z,19.83
2016-09-17T08:12:45.531Z,19.92
2016-09-17T08:13:45.789Z,19.96
2016-09-17T08:14:45.762Z,19.94
2016-09-17T08:15:45.426Z,20.01
2016-09-17T08:16:45.401Z,20.11
2016-09-17T08:17:45.668Z,20.17
2016-09-17T08:18:45.647Z,20.26
2016-09-17T08:19:45.318Z,20.24
2016-09-17T08:20:45.588Z,20.38
2016-09-17T08:21:45.563Z,20.48
2016-09-17T08:22:45.530Z,20.54
2016-09-17T08:23:45.497Z,20.61
2016-09-17T08:24:45.466Z,20.73
2016-09-17T08:25:45.440Z,20.84
2016-09-17T08:26:45.410Z,20.98
2016-09-17T08:27:44.778Z,21.04
2016-09-17T08:28:45.060Z,21.16
2016-09-17T08:29:45.322Z,21.31
2016-09-17T08:30:45.300Z,21.47
2016-09-17T08:31:44.963Z,21.54
2016-09-17T08:32:45.247Z,21.75
2016-09-17T08:33:45.207Z,21.91
2016-09-17T08:34:44.882Z,22.09
2016-09-17T08:35:45.150Z,22.07
2016-09-17T08:36:45.127Z,22.24
2016-09-17T08:37:45.092Z,22.39
2016-09-17T08:38:45.074Z,22.64
2016-09-17T08:39:44.732Z,22.65
2016-09-17T08:40:44.710Z,22.9
2016-09-17T08:41:44.977Z,22.92
2016-09-17T08:42:44.952Z,23.12
2016-09-17T08:43:44.925Z,23.31
2016-09-17T08:44:44.904Z,23.39
2016-09-17T08:45:44.872Z,23.58
2016-09-17T08:46:44.544Z,23.6
2016-09-17T08:47:44.821Z,23.63
2016-09-17T08:48:44.504Z,23.75
2016-09-17T08:49:44.159Z,23.7
2016-09-17T08:50:44.743Z,23.88
2016-09-17T08:51:44.403Z,23.97
2016-09-17T08:52:44.075Z,24.13
2016-09-17T08:53:44.660Z,24.21
2016-09-17T08:54:44.338Z,24.37
2016-09-17T08:55:44.606Z,24.39
2016-09-17T08:56:44.590Z,24.49
2016-09-17T08:57:44.548Z,24.61
2016-09-17T08:58:44.523Z,24.77
2016-09-17T08:59:44.497Z,24.83
2016-09-17T09:00:43.867Z,25.28
2016-09-17T09:01:44.137Z,25.61
2016-09-17T09:02:44.414Z,25.77
2016-09-17T09:03:44.104Z,25.88
2016-09-17T09:04:44.363Z,25.9
2016-09-17T09:05:44.338Z,25.99
2016-09-17T09:06:44.009Z,26.07
2016-09-17T09:07:43.980Z,26.09
2016-09-17T09:08:44.264Z,26.23
2016-09-17T09:09:44.237Z,26.47
2016-09-17T09:10:43.615Z,26.67
2016-09-17T09:11:43.882Z,26.73
2016-09-17T09:12:44.165Z,26.87
2016-09-17T09:13:44.138Z,27.03
2016-09-17T09:14:43.810Z,27.17
2016-09-17T09:15:43.778Z,27.41
2016-09-17T09:16:43.757Z,27.49
2016-09-17T09:17:44.042Z,27.7
2016-09-17T09:18:43.705Z,27.99
2016-09-17T09:19:43.981Z,28.36
2016-09-17T09:20:43.953Z,28.59
2016-09-17T09:21:43.635Z,28.74
2016-09-17T09:22:43.905Z,28.86
2016-09-17T09:23:43.894Z,29
2016-09-17T09:24:43.861Z,29.06
2016-09-17T09:25:43.832Z,29.15
2016-09-17T09:26:43.818Z,29.21
2016-09-17T09:27:43.782Z,29.05
2016-09-17T09:28:43.465Z,29.24
2016-09-17T09:29:43.438Z,29.3
2016-09-17T09:30:43.413Z,29.3
2016-09-17T09:31:43.392Z,29.49
2016-09-17T09:32:43.679Z,29.58
2016-09-17T09:33:43.646Z,29.57
2016-09-17T09:34:43.624Z,29.51
2016-09-17T09:35:43.299Z,29.63
2016-09-17T09:36:43.572Z,29.87
2016-09-17T09:37:43.551Z,29.76
2016-09-17T09:38:43.529Z,29.68
2016-09-17T09:39:43.508Z,30
2016-09-17T09:40:43.179Z,30.45
2016-09-17T09:41:43.456Z,31.17
2016-09-17T09:42:43.138Z,32.04
2016-09-17T09:43:43.409Z,32.06
2016-09-17T09:44:43.081Z,31.72
2016-09-17T09:45:43.066Z,31.25
2016-09-17T09:46:43.043Z,30.65
2016-09-17T09:47:43.316Z,30.37
2016-09-17T09:48:42.995Z,30.47
2016-09-17T09:49:43.277Z,30.7
2016-09-17T09:50:43.248Z,30.98
2016-09-17T09:51:43.224Z,31.41
2016-09-17T09:52:43.203Z,32.13
2016-09-17T09:53:42.876Z,32.15
2016-09-17T09:54:43.163Z,31.84
2016-09-17T09:55:42.834Z,30.99
2016-09-17T09:56:42.813Z,30.46
2016-09-17T09:57:42.787Z,29.97
2016-09-17T09:58:43.069Z,29.45
2016-09-17T09:59:42.748Z,29.45
2016-09-17T10:00:42.723Z,29.27
2016-09-17T10:01:42.705Z,28.96
2016-09-17T10:02:42.981Z,28.7
2016-09-17T10:03:42.958Z,28.33
2016-09-17T10:04:42.934Z,28.12
2016-09-17T10:05:42.608Z,27.85
2016-09-17T10:06:42.885Z,27.62
2016-09-17T10:07:42.560Z,27.4
2016-09-17T10:08:42.840Z,27.32
2016-09-17T10:09:42.825Z,27.97
2016-09-17T10:10:42.489Z,28.24
2016-09-17T10:11:42.774Z,28.78
2016-09-17T10:12:42.742Z,29.83
2016-09-17T10:13:42.717Z,31.09
2016-09-17T10:14:42.692Z,32.23
2016-09-17T10:15:42.670Z,32.92
2016-09-17T10:16:42.344Z,33.29
2016-09-17T10:17:42.627Z,33.26
2016-09-17T10:18:42.603Z,32.74
2016-09-17T10:19:42.274Z,32.77
2016-09-17T10:20:42.556Z,33.32
2016-09-17T10:21:42.232Z,33.87
2016-09-17T10:22:42.512Z,34.52
2016-09-17T10:23:42.188Z,34.96
2016-09-17T10:24:42.471Z,35.41
2016-09-17T10:25:42.448Z,35.81
2016-09-17T10:26:42.126Z,36.22
2016-09-17T10:27:42.412Z,36.35
2016-09-17T10:28:42.084Z,36.29
2016-09-17T10:29:42.366Z,36.29
2016-09-17T10:30:42.049Z,36.59
2016-09-17T10:31:42.017Z,36.91
2016-09-17T10:32:42.322Z,37.03
2016-09-17T10:33:42.281Z,36.76
2016-09-17T10:34:41.963Z,36.71
2016-09-17T10:35:41.655Z,36.83
2016-09-17T10:36:41.922Z,37.17
2016-09-17T10:37:41.911Z,37.36
2016-09-17T10:38:41.578Z,37.46
2016-09-17T10:39:42.179Z,38.01
2016-09-17T10:40:42.146Z,38.25
2016-09-17T10:41:42.132Z,38.42
2016-09-17T10:42:42.107Z,38.07
2016-09-17T10:43:42.087Z,37.39
2016-09-17T10:44:41.762Z,37.12
2016-09-17T10:45:42.049Z,37.1
2016-09-17T10:46:42.029Z,37.37
2016-09-17T10:47:42.011Z,37.59
2016-09-17T10:48:41.691Z,37.85
2016-09-17T10:49:41.979Z,37.97
2016-09-17T10:50:41.953Z,38.07
2016-09-17T10:51:41.627Z,38.11
2016-09-17T10:52:41.907Z,38.18
2016-09-17T10:53:41.893Z,38.04
2016-09-17T10:54:41.568Z,37.41
2016-09-17T10:55:41.562Z,36.69
2016-09-17T10:56:41.230Z,36.31
2016-09-17T10:57:41.515Z,36.31
2016-09-17T10:58:41.798Z,36.23
2016-09-17T10:59:41.471Z,36.28
2016-09-17T11:00:41.454Z,36.2
2016-09-17T11:01:41.436Z,36.29
2016-09-17T11:02:41.719Z,36.25
2016-09-17T11:03:41.699Z,35.77
2016-09-17T11:04:41.384Z,35.59
2016-09-17T11:05:41.659Z,35.43
2016-09-17T11:06:41.643Z,35.47
2016-09-17T11:07:41.019Z,35.43
2016-09-17T11:08:41.600Z,35.19
2016-09-17T11:09:41.585Z,34.72
2016-09-17T11:10:41.253Z,34.53
2016-09-17T11:11:41.540Z,34.52
2016-09-17T11:12:41.518Z,34.46
2016-09-17T11:13:41.497Z,34.3
2016-09-17T11:14:41.173Z,34.13
2016-09-17T11:15:41.457Z,34.02
2016-09-17T11:16:41.137Z,33.84
2016-09-17T11:17:41.419Z,33.63
2016-09-17T11:18:41.104Z,33.59
2016-09-17T11:19:41.373Z,33.35
2016-09-17T11:20:41.353Z,33.12
2016-09-17T11:21:41.331Z,32.88
2016-09-17T11:22:41.311Z,32.72
2016-09-17T11:23:40.993Z,32.28
2016-09-17T11:24:41.279Z,31.85
2016-09-17T11:25:40.943Z,31.46
2016-09-17T11:26:41.233Z,31.12
2016-09-17T11:27:41.203Z,30.84
2016-09-17T11:28:40.579Z,30.54
2016-09-17T11:29:40.871Z,30.15
2016-09-17T11:30:40.832Z,29.7
2016-09-17T11:31:41.116Z,29.31
2016-09-17T11:32:40.789Z,28.78
2016-09-17T11:33:41.070Z,28.36
2016-09-17T11:34:41.055Z,28.03
2016-09-17T11:35:40.719Z,27.77
2016-09-17T11:36:40.996Z,27.6
2016-09-17T11:37:40.976Z,27.43
2016-09-17T11:38:40.659Z,27.18
2016-09-17T11:39:40.628Z,27.06
2016-09-17T11:40:40.905Z,26.88
2016-09-17T11:41:40.277Z,26.77
2016-09-17T11:42:40.250Z,26.75
2016-09-17T11:43:40.839Z,26.51
2016-09-17T11:44:40.817Z,26.48
2016-09-17T11:45:40.785Z,26.33
2016-09-17T11:46:40.455Z,26.29
2016-09-17T11:47:40.736Z,26.17
2016-09-17T11:48:40.709Z,26.15
2016-09-17T11:49:40.681Z,25.94
2016-09-17T11:50:40.663Z,25.87
2016-09-17T11:51:40.635Z,25.82
2016-09-17T11:52:40.612Z,25.67
2016-09-17T11:53:40.578Z,25.58
2016-09-17T11:54:40.553Z,25.55
2016-09-17T11:55:40.538Z,25.58
2016-09-17T11:56:40.203Z,25.39
2016-09-17T11:57:40.176Z,25.32
2016-09-17T11:58:40.454Z,25.27
2016-09-17T11:59:40.129Z,25.15
2016-09-17T12:00:40.403Z,25.14
2016-09-17T12:01:40.067Z,25.1
2016-09-17T12:02:40.355Z,25.14
2016-09-17T12:03:40.016Z,25.14
2016-09-17T12:04:40.303Z,25.03
2016-09-17T12:05:39.665Z,24.9
2016-09-17T12:06:40.256Z,24.85
2016-09-17T12:07:40.224Z,24.76
2016-09-17T12:08:40.195Z,24.73
2016-09-17T12:09:40.166Z,24.77
2016-09-17T12:10:39.539Z,24.77
2016-09-17T12:11:39.805Z,24.77
2016-09-17T12:12:40.108Z,24.76
2016-09-17T12:13:40.058Z,24.73
2016-09-17T12:14:39.751Z,24.78
2016-09-17T12:15:39.725Z,24.78
2016-09-17T12:16:39.677Z,24.71
2016-09-17T12:17:39.356Z,24.77
2016-09-17T12:18:39.928Z,24.77
2016-09-17T12:19:39.902Z,24.62
2016-09-17T12:20:39.872Z,24.39
2016-09-17T12:21:39.843Z,24.27
2016-09-17T12:22:39.820Z,24.13
2016-09-17T12:23:39.797Z,24
2016-09-17T12:24:39.764Z,23.83
2016-09-17T12:25:39.440Z,23.84
2016-09-17T12:26:39.730Z,23.88
2016-09-17T12:27:39.687Z,24.09
2016-09-17T12:28:39.673Z,24.09
2016-09-17T12:29:39.637Z,23.93
2016-09-17T12:30:39.301Z,24.02
2016-09-17T12:31:39.578Z,23.98
2016-09-17T12:32:39.246Z,24.08
2016-09-17T12:33:39.525Z,24.18
2016-09-17T12:34:39.491Z,24.22
2016-09-17T12:35:39.473Z,24.25
2016-09-17T12:36:39.139Z,24.24
2016-09-17T12:37:38.811Z,24.1
2016-09-17T12:38:39.391Z,23.88
2016-09-17T12:39:39.363Z,23.87
2016-09-17T12:40:39.034Z,24
2016-09-17T12:41:39.009Z,24.02
2016-09-17T12:42:38.981Z,24.12
2016-09-17T12:43:38.955Z,24.31
2016-09-17T12:44:39.226Z,24.34
2016-09-17T12:45:38.896Z,24.39
2016-09-17T12:46:39.179Z,24.47
2016-09-17T12:47:38.845Z,24.57
2016-09-17T12:48:38.820Z,24.58
2016-09-17T12:49:38.786Z,24.64
2016-09-17T12:50:39.073Z,24.52
2016-09-17T12:51:39.036Z,24.62
2016-09-17T12:52:38.716Z,24.67
2016-09-17T12:53:38.985Z,24.64
2016-09-17T12:54:38.959Z,24.76